sensor_id;sensor_type;location;lat;lon;timestamp;P1;durP1;ratioP1;P2;durP2;ratioP2
32734;SDS011;19112;51.076;3.706;2023-05-07T00:00:37;21.77;;;5.13;;
32734;SDS011;19112;51.076;3.706;2023-05-07T00:03:03;16.48;;;4.53;;
32734;SDS011;19112;51.076;3.706;2023-05-07T00:05:29;18.95;;;4.93;;
32734;SDS011;19112;51.076;3.706;2023-05-07T00:07:55;16.77;;;4.20;;
32734;SDS011;19112;51.076;3.706;2023-05-07T00:10:21;13.88;;;4.20;;
32734;SDS011;19112;51.076;3.706;2023-05-07T00:12:46;18.88;;;4.63;;
32734;SDS011;19112;51.076;3.706;2023-05-07T00:15:12;15.35;;;4.63;;
32734;SDS011;19112;51.076;3.706;2023-05-07T00:17:38;24.70;;;5.82;;
32734;SDS011;19112;51.076;3.706;2023-05-07T00:20:04;17.92;;;4.50;;
32734;SDS011;19112;51.076;3.706;2023-05-07T00:22:31;16.88;;;4.93;;
32734;SDS011;19112;51.076;3.706;2023-05-07T00:24:57;16.92;;;4.72;;
32734;SDS011;19112;51.076;3.706;2023-05-07T00:27:24;13.85;;;4.13;;
32734;SDS011;19112;51.076;3.706;2023-05-07T00:29:50;18.73;;;4.80;;
32734;SDS011;19112;51.076;3.706;2023-05-07T00:32:16;18.55;;;4.10;;
32734;SDS011;19112;51.076;3.706;2023-05-07T00:34:42;17.40;;;4.47;;
32734;SDS011;19112;51.076;3.706;2023-05-07T00:37:08;15.63;;;4.35;;
32734;SDS011;19112;51.076;3.706;2023-05-07T00:39:35;11.98;;;4.07;;
32734;SDS011;19112;51.076;3.706;2023-05-07T00:42:01;15.25;;;4.50;;
32734;SDS011;19112;51.076;3.706;2023-05-07T00:44:28;17.08;;;4.60;;
32734;SDS011;19112;51.076;3.706;2023-05-07T00:46:55;15.73;;;4.20;;
32734;SDS011;19112;51.076;3.706;2023-05-07T00:49:23;16.70;;;4.10;;
32734;SDS011;19112;51.076;3.706;2023-05-07T00:52:02;21.88;;;4.50;;
32734;SDS011;19112;51.076;3.706;2023-05-07T00:54:30;20.83;;;4.32;;
32734;SDS011;19112;51.076;3.706;2023-05-07T00:56:56;15.85;;;4.95;;
32734;SDS011;19112;51.076;3.706;2023-05-07T00:59:22;17.75;;;4.47;;
32734;SDS011;19112;51.076;3.706;2023-05-07T01:01:48;15.95;;;4.47;;
32734;SDS011;19112;51.076;3.706;2023-05-07T01:04:14;17.85;;;4.63;;
32734;SDS011;19112;51.076;3.706;2023-05-07T01:06:40;15.60;;;4.60;;
32734;SDS011;19112;51.076;3.706;2023-05-07T01:09:06;15.80;;;4.90;;
32734;SDS011;19112;51.076;3.706;2023-05-07T01:11:34;16.95;;;4.30;;
32734;SDS011;19112;51.076;3.706;2023-05-07T01:14:00;16.98;;;4.60;;
32734;SDS011;19112;51.076;3.706;2023-05-07T01:16:26;14.50;;;4.70;;
32734;SDS011;19112;51.076;3.706;2023-05-07T01:18:52;16.15;;;4.40;;
32734;SDS011;19112;51.076;3.706;2023-05-07T01:21:18;14.90;;;4.18;;
32734;SDS011;19112;51.076;3.706;2023-05-07T01:26:19;14.20;;;4.20;;
32734;SDS011;19112;51.076;3.706;2023-05-07T01:28:45;15.32;;;4.88;;
32734;SDS011;19112;51.076;3.706;2023-05-07T01:31:11;14.52;;;4.53;;
32734;SDS011;19112;51.076;3.706;2023-05-07T01:33:38;18.30;;;4.65;;
32734;SDS011;19112;51.076;3.706;2023-05-07T01:36:06;13.70;;;4.07;;
32734;SDS011;19112;51.076;3.706;2023-05-07T01:38:34;14.45;;;4.50;;
32734;SDS011;19112;51.076;3.706;2023-05-07T01:41:02;17.85;;;5.20;;
32734;SDS011;19112;51.076;3.706;2023-05-07T01:43:29;16.05;;;4.63;;
32734;SDS011;19112;51.076;3.706;2023-05-07T01:45:56;12.20;;;4.22;;
32734;SDS011;19112;51.076;3.706;2023-05-07T01:48:24;18.52;;;5.00;;
32734;SDS011;19112;51.076;3.706;2023-05-07T01:50:50;23.50;;;6.03;;
32734;SDS011;19112;51.076;3.706;2023-05-07T01:53:17;15.60;;;5.15;;
32734;SDS011;19112;51.076;3.706;2023-05-07T01:55:43;17.80;;;5.97;;
32734;SDS011;19112;51.076;3.706;2023-05-07T01:58:09;17.52;;;5.80;;
32734;SDS011;19112;51.076;3.706;2023-05-07T02:00:35;19.80;;;5.55;;
32734;SDS011;19112;51.076;3.706;2023-05-07T02:03:01;16.23;;;5.25;;
32734;SDS011;19112;51.076;3.706;2023-05-07T02:05:27;19.63;;;5.82;;
32734;SDS011;19112;51.076;3.706;2023-05-07T02:07:53;18.85;;;5.53;;
32734;SDS011;19112;51.076;3.706;2023-05-07T02:10:19;18.80;;;5.78;;
32734;SDS011;19112;51.076;3.706;2023-05-07T02:12:44;15.18;;;5.35;;
32734;SDS011;19112;51.076;3.706;2023-05-07T02:15:10;18.63;;;5.45;;
32734;SDS011;19112;51.076;3.706;2023-05-07T02:17:39;15.45;;;5.38;;
32734;SDS011;19112;51.076;3.706;2023-05-07T02:20:25;22.13;;;6.70;;
32734;SDS011;19112;51.076;3.706;2023-05-07T02:22:51;18.90;;;5.40;;
32734;SDS011;19112;51.076;3.706;2023-05-07T02:25:17;22.13;;;6.40;;
32734;SDS011;19112;51.076;3.706;2023-05-07T02:27:42;18.55;;;6.07;;
32734;SDS011;19112;51.076;3.706;2023-05-07T02:30:08;19.40;;;7.03;;
32734;SDS011;19112;51.076;3.706;2023-05-07T02:32:35;21.15;;;6.88;;
32734;SDS011;19112;51.076;3.706;2023-05-07T02:35:01;18.55;;;5.82;;
32734;SDS011;19112;51.076;3.706;2023-05-07T02:37:27;24.20;;;6.25;;
32734;SDS011;19112;51.076;3.706;2023-05-07T02:39:53;19.05;;;5.55;;
32734;SDS011;19112;51.076;3.706;2023-05-07T02:42:18;19.17;;;6.03;;
32734;SDS011;19112;51.076;3.706;2023-05-07T02:44:44;17.35;;;5.70;;
32734;SDS011;19112;51.076;3.706;2023-05-07T02:47:10;15.85;;;6.30;;
32734;SDS011;19112;51.076;3.706;2023-05-07T02:49:38;22.55;;;5.93;;
32734;SDS011;19112;51.076;3.706;2023-05-07T02:52:04;19.42;;;5.97;;
32734;SDS011;19112;51.076;3.706;2023-05-07T02:54:30;23.35;;;6.68;;
32734;SDS011;19112;51.076;3.706;2023-05-07T02:56:56;16.70;;;5.82;;
32734;SDS011;19112;51.076;3.706;2023-05-07T02:59:23;16.30;;;5.80;;
32734;SDS011;19112;51.076;3.706;2023-05-07T03:01:50;17.77;;;6.00;;
32734;SDS011;19112;51.076;3.706;2023-05-07T03:04:16;19.95;;;6.85;;
32734;SDS011;19112;51.076;3.706;2023-05-07T03:06:42;18.95;;;6.63;;
32734;SDS011;19112;51.076;3.706;2023-05-07T03:09:07;16.85;;;6.18;;
32734;SDS011;19112;51.076;3.706;2023-05-07T03:11:33;20.23;;;5.72;;
32734;SDS011;19112;51.076;3.706;2023-05-07T03:14:00;18.25;;;6.07;;
32734;SDS011;19112;51.076;3.706;2023-05-07T03:16:26;17.80;;;6.38;;
32734;SDS011;19112;51.076;3.706;2023-05-07T03:18:52;18.75;;;5.90;;
32734;SDS011;19112;51.076;3.706;2023-05-07T03:21:18;24.80;;;6.78;;
32734;SDS011;19112;51.076;3.706;2023-05-07T03:23:44;21.08;;;6.13;;
32734;SDS011;19112;51.076;3.706;2023-05-07T03:26:10;17.33;;;6.13;;
32734;SDS011;19112;51.076;3.706;2023-05-07T03:28:36;20.90;;;6.38;;
32734;SDS011;19112;51.076;3.706;2023-05-07T03:31:02;20.45;;;5.85;;
32734;SDS011;19112;51.076;3.706;2023-05-07T03:33:28;21.52;;;6.88;;
32734;SDS011;19112;51.076;3.706;2023-05-07T03:35:54;19.35;;;6.40;;
32734;SDS011;19112;51.076;3.706;2023-05-07T03:38:20;20.42;;;6.20;;
32734;SDS011;19112;51.076;3.706;2023-05-07T03:40:45;20.00;;;6.47;;
32734;SDS011;19112;51.076;3.706;2023-05-07T03:43:11;19.70;;;6.72;;
32734;SDS011;19112;51.076;3.706;2023-05-07T03:45:37;17.38;;;7.35;;
32734;SDS011;19112;51.076;3.706;2023-05-07T03:48:03;18.45;;;6.00;;
32734;SDS011;19112;51.076;3.706;2023-05-07T03:50:29;22.80;;;7.05;;
32734;SDS011;19112;51.076;3.706;2023-05-07T03:52:55;18.98;;;5.97;;
32734;SDS011;19112;51.076;3.706;2023-05-07T03:55:21;20.92;;;6.88;;
32734;SDS011;19112;51.076;3.706;2023-05-07T03:57:46;19.05;;;6.68;;
32734;SDS011;19112;51.076;3.706;2023-05-07T04:00:12;22.45;;;7.40;;
32734;SDS011;19112;51.076;3.706;2023-05-07T04:02:39;15.32;;;5.75;;
32734;SDS011;19112;51.076;3.706;2023-05-07T04:05:04;21.33;;;7.10;;
32734;SDS011;19112;51.076;3.706;2023-05-07T04:07:31;21.45;;;7.80;;
32734;SDS011;19112;51.076;3.706;2023-05-07T04:09:56;17.63;;;7.10;;
32734;SDS011;19112;51.076;3.706;2023-05-07T04:12:22;19.27;;;6.40;;
32734;SDS011;19112;51.076;3.706;2023-05-07T04:14:48;22.95;;;7.05;;
32734;SDS011;19112;51.076;3.706;2023-05-07T04:17:14;20.67;;;7.00;;
32734;SDS011;19112;51.076;3.706;2023-05-07T04:19:40;21.55;;;7.25;;
32734;SDS011;19112;51.076;3.706;2023-05-07T04:22:10;21.08;;;6.63;;
32734;SDS011;19112;51.076;3.706;2023-05-07T04:24:37;24.65;;;7.65;;
32734;SDS011;19112;51.076;3.706;2023-05-07T04:27:03;20.33;;;7.18;;
32734;SDS011;19112;51.076;3.706;2023-05-07T04:29:29;26.23;;;8.68;;
32734;SDS011;19112;51.076;3.706;2023-05-07T04:31:55;21.52;;;7.63;;
32734;SDS011;19112;51.076;3.706;2023-05-07T04:34:21;22.15;;;7.30;;
32734;SDS011;19112;51.076;3.706;2023-05-07T04:36:47;25.45;;;8.18;;
32734;SDS011;19112;51.076;3.706;2023-05-07T04:39:13;23.08;;;7.57;;
32734;SDS011;19112;51.076;3.706;2023-05-07T04:41:39;21.35;;;7.57;;
32734;SDS011;19112;51.076;3.706;2023-05-07T04:44:04;19.77;;;7.80;;
32734;SDS011;19112;51.076;3.706;2023-05-07T04:46:30;20.33;;;6.97;;
32734;SDS011;19112;51.076;3.706;2023-05-07T04:48:56;20.92;;;7.43;;
32734;SDS011;19112;51.076;3.706;2023-05-07T04:51:22;15.15;;;6.43;;
32734;SDS011;19112;51.076;3.706;2023-05-07T04:53:48;19.58;;;7.35;;
32734;SDS011;19112;51.076;3.706;2023-05-07T04:56:14;19.48;;;7.35;;
32734;SDS011;19112;51.076;3.706;2023-05-07T04:58:40;18.60;;;6.80;;
32734;SDS011;19112;51.076;3.706;2023-05-07T05:01:06;19.02;;;7.35;;
32734;SDS011;19112;51.076;3.706;2023-05-07T05:03:32;21.55;;;8.55;;
32734;SDS011;19112;51.076;3.706;2023-05-07T05:05:57;20.85;;;8.02;;
32734;SDS011;19112;51.076;3.706;2023-05-07T05:08:24;20.13;;;7.38;;
32734;SDS011;19112;51.076;3.706;2023-05-07T05:10:50;21.60;;;7.80;;
32734;SDS011;19112;51.076;3.706;2023-05-07T05:13:16;21.75;;;8.55;;
32734;SDS011;19112;51.076;3.706;2023-05-07T05:15:42;20.15;;;8.18;;
32734;SDS011;19112;51.076;3.706;2023-05-07T05:18:08;22.70;;;8.43;;
32734;SDS011;19112;51.076;3.706;2023-05-07T05:20:34;21.83;;;8.82;;
32734;SDS011;19112;51.076;3.706;2023-05-07T05:23:00;25.73;;;8.60;;
32734;SDS011;19112;51.076;3.706;2023-05-07T05:25:26;23.67;;;8.25;;
32734;SDS011;19112;51.076;3.706;2023-05-07T05:27:53;25.42;;;7.90;;
32734;SDS011;19112;51.076;3.706;2023-05-07T05:30:19;19.75;;;7.00;;
32734;SDS011;19112;51.076;3.706;2023-05-07T05:32:45;19.70;;;6.93;;
32734;SDS011;19112;51.076;3.706;2023-05-07T05:35:11;19.80;;;7.03;;
32734;SDS011;19112;51.076;3.706;2023-05-07T05:37:37;20.00;;;7.03;;
32734;SDS011;19112;51.076;3.706;2023-05-07T05:40:03;21.20;;;7.28;;
32734;SDS011;19112;51.076;3.706;2023-05-07T05:42:29;22.83;;;7.13;;
32734;SDS011;19112;51.076;3.706;2023-05-07T05:44:55;23.05;;;7.35;;
32734;SDS011;19112;51.076;3.706;2023-05-07T05:47:21;18.63;;;6.88;;
32734;SDS011;19112;51.076;3.706;2023-05-07T05:49:47;17.33;;;6.70;;
32734;SDS011;19112;51.076;3.706;2023-05-07T05:52:13;21.60;;;6.30;;
32734;SDS011;19112;51.076;3.706;2023-05-07T05:54:39;18.88;;;6.57;;
32734;SDS011;19112;51.076;3.706;2023-05-07T05:57:05;23.00;;;6.70;;
32734;SDS011;19112;51.076;3.706;2023-05-07T05:59:31;17.92;;;6.82;;
32734;SDS011;19112;51.076;3.706;2023-05-07T06:01:57;21.33;;;6.40;;
32734;SDS011;19112;51.076;3.706;2023-05-07T06:04:23;28.70;;;7.40;;
32734;SDS011;19112;51.076;3.706;2023-05-07T06:06:49;18.77;;;6.45;;
32734;SDS011;19112;51.076;3.706;2023-05-07T06:09:14;20.38;;;7.25;;
32734;SDS011;19112;51.076;3.706;2023-05-07T06:11:40;20.30;;;6.78;;
32734;SDS011;19112;51.076;3.706;2023-05-07T06:14:06;18.65;;;6.72;;
32734;SDS011;19112;51.076;3.706;2023-05-07T06:16:32;17.42;;;6.57;;
32734;SDS011;19112;51.076;3.706;2023-05-07T06:18:58;19.13;;;6.70;;
32734;SDS011;19112;51.076;3.706;2023-05-07T06:21:24;21.17;;;7.50;;
32734;SDS011;19112;51.076;3.706;2023-05-07T06:23:49;22.10;;;7.38;;
32734;SDS011;19112;51.076;3.706;2023-05-07T06:26:17;19.40;;;6.75;;
32734;SDS011;19112;51.076;3.706;2023-05-07T06:28:43;18.38;;;6.38;;
32734;SDS011;19112;51.076;3.706;2023-05-07T06:31:12;19.27;;;6.35;;
32734;SDS011;19112;51.076;3.706;2023-05-07T06:33:45;23.65;;;6.95;;
32734;SDS011;19112;51.076;3.706;2023-05-07T06:36:11;19.73;;;6.40;;
32734;SDS011;19112;51.076;3.706;2023-05-07T06:38:38;19.10;;;6.95;;
32734;SDS011;19112;51.076;3.706;2023-05-07T06:41:05;18.70;;;6.63;;
32734;SDS011;19112;51.076;3.706;2023-05-07T06:43:31;19.30;;;6.75;;
32734;SDS011;19112;51.076;3.706;2023-05-07T06:45:58;16.67;;;6.07;;
32734;SDS011;19112;51.076;3.706;2023-05-07T06:48:23;19.58;;;6.25;;
32734;SDS011;19112;51.076;3.706;2023-05-07T06:50:49;16.35;;;5.53;;
32734;SDS011;19112;51.076;3.706;2023-05-07T06:53:15;15.93;;;5.47;;
32734;SDS011;19112;51.076;3.706;2023-05-07T06:55:41;15.10;;;5.38;;
32734;SDS011;19112;51.076;3.706;2023-05-07T06:58:07;18.80;;;5.60;;
32734;SDS011;19112;51.076;3.706;2023-05-07T07:00:33;15.57;;;5.32;;
32734;SDS011;19112;51.076;3.706;2023-05-07T07:03:00;17.48;;;5.97;;
32734;SDS011;19112;51.076;3.706;2023-05-07T07:05:25;19.38;;;6.20;;
32734;SDS011;19112;51.076;3.706;2023-05-07T07:07:51;19.05;;;5.85;;
32734;SDS011;19112;51.076;3.706;2023-05-07T07:10:23;19.30;;;6.45;;
32734;SDS011;19112;51.076;3.706;2023-05-07T07:12:49;20.33;;;6.10;;
32734;SDS011;19112;51.076;3.706;2023-05-07T07:15:17;19.25;;;5.20;;
32734;SDS011;19112;51.076;3.706;2023-05-07T07:17:43;19.50;;;5.50;;
32734;SDS011;19112;51.076;3.706;2023-05-07T07:20:09;18.55;;;5.80;;
32734;SDS011;19112;51.076;3.706;2023-05-07T07:22:36;16.05;;;5.40;;
32734;SDS011;19112;51.076;3.706;2023-05-07T07:25:02;16.33;;;5.85;;
32734;SDS011;19112;51.076;3.706;2023-05-07T07:27:28;16.60;;;5.85;;
32734;SDS011;19112;51.076;3.706;2023-05-07T07:29:53;16.70;;;5.22;;
32734;SDS011;19112;51.076;3.706;2023-05-07T07:32:19;17.25;;;5.70;;
32734;SDS011;19112;51.076;3.706;2023-05-07T07:34:45;14.82;;;5.10;;
32734;SDS011;19112;51.076;3.706;2023-05-07T07:37:11;18.92;;;5.88;;
32734;SDS011;19112;51.076;3.706;2023-05-07T07:39:37;17.08;;;5.07;;
32734;SDS011;19112;51.076;3.706;2023-05-07T07:42:03;13.77;;;5.43;;
32734;SDS011;19112;51.076;3.706;2023-05-07T07:44:29;14.25;;;5.80;;
32734;SDS011;19112;51.076;3.706;2023-05-07T07:46:55;12.85;;;5.63;;
32734;SDS011;19112;51.076;3.706;2023-05-07T07:49:21;18.20;;;5.43;;
32734;SDS011;19112;51.076;3.706;2023-05-07T07:51:46;12.90;;;4.85;;
32734;SDS011;19112;51.076;3.706;2023-05-07T07:54:12;16.70;;;5.93;;
32734;SDS011;19112;51.076;3.706;2023-05-07T07:56:38;13.55;;;5.10;;
32734;SDS011;19112;51.076;3.706;2023-05-07T07:59:04;17.77;;;5.45;;
32734;SDS011;19112;51.076;3.706;2023-05-07T08:01:30;19.45;;;5.97;;
32734;SDS011;19112;51.076;3.706;2023-05-07T08:03:56;15.32;;;5.13;;
32734;SDS011;19112;51.076;3.706;2023-05-07T08:06:28;23.55;;;5.75;;
32734;SDS011;19112;51.076;3.706;2023-05-07T08:08:54;15.85;;;5.68;;
32734;SDS011;19112;51.076;3.706;2023-05-07T08:11:20;17.08;;;6.13;;
32734;SDS011;19112;51.076;3.706;2023-05-07T08:13:46;18.80;;;6.53;;
32734;SDS011;19112;51.076;3.706;2023-05-07T08:16:13;19.45;;;5.82;;
32734;SDS011;19112;51.076;3.706;2023-05-07T08:18:39;18.33;;;5.47;;
32734;SDS011;19112;51.076;3.706;2023-05-07T08:21:05;15.90;;;5.30;;
32734;SDS011;19112;51.076;3.706;2023-05-07T08:23:31;21.27;;;5.90;;
32734;SDS011;19112;51.076;3.706;2023-05-07T08:25:57;21.63;;;6.13;;
32734;SDS011;19112;51.076;3.706;2023-05-07T08:28:23;12.57;;;5.30;;
32734;SDS011;19112;51.076;3.706;2023-05-07T08:30:50;18.73;;;5.68;;
32734;SDS011;19112;51.076;3.706;2023-05-07T08:33:16;14.02;;;5.70;;
32734;SDS011;19112;51.076;3.706;2023-05-07T08:35:42;13.32;;;5.45;;
32734;SDS011;19112;51.076;3.706;2023-05-07T08:38:08;15.68;;;5.60;;
32734;SDS011;19112;51.076;3.706;2023-05-07T08:40:36;17.02;;;5.30;;
32734;SDS011;19112;51.076;3.706;2023-05-07T08:43:05;19.60;;;5.55;;
32734;SDS011;19112;51.076;3.706;2023-05-07T08:45:32;12.23;;;5.22;;
32734;SDS011;19112;51.076;3.706;2023-05-07T08:48:01;15.00;;;4.97;;
32734;SDS011;19112;51.076;3.706;2023-05-07T08:50:30;21.00;;;5.85;;
32734;SDS011;19112;51.076;3.706;2023-05-07T08:52:56;14.77;;;5.38;;
32734;SDS011;19112;51.076;3.706;2023-05-07T08:55:22;18.10;;;5.53;;
32734;SDS011;19112;51.076;3.706;2023-05-07T08:57:49;16.38;;;5.60;;
32734;SDS011;19112;51.076;3.706;2023-05-07T09:00:17;21.10;;;6.22;;
32734;SDS011;19112;51.076;3.706;2023-05-07T09:02:43;17.05;;;5.35;;
32734;SDS011;19112;51.076;3.706;2023-05-07T09:05:09;13.68;;;4.97;;
32734;SDS011;19112;51.076;3.706;2023-05-07T09:07:35;16.77;;;6.22;;
32734;SDS011;19112;51.076;3.706;2023-05-07T09:10:05;15.90;;;5.18;;
32734;SDS011;19112;51.076;3.706;2023-05-07T09:12:32;14.43;;;4.80;;
32734;SDS011;19112;51.076;3.706;2023-05-07T09:15:00;13.20;;;4.70;;
32734;SDS011;19112;51.076;3.706;2023-05-07T09:17:27;12.45;;;4.85;;
32734;SDS011;19112;51.076;3.706;2023-05-07T09:19:53;13.15;;;4.75;;
32734;SDS011;19112;51.076;3.706;2023-05-07T09:22:19;18.73;;;4.72;;
32734;SDS011;19112;51.076;3.706;2023-05-07T09:24:49;16.70;;;4.68;;
32734;SDS011;19112;51.076;3.706;2023-05-07T09:27:16;14.75;;;4.75;;
32734;SDS011;19112;51.076;3.706;2023-05-07T09:29:45;14.65;;;4.72;;
32734;SDS011;19112;51.076;3.706;2023-05-07T09:32:11;15.70;;;4.80;;
32734;SDS011;19112;51.076;3.706;2023-05-07T09:34:38;19.50;;;5.00;;
32734;SDS011;19112;51.076;3.706;2023-05-07T09:37:05;14.27;;;4.88;;
32734;SDS011;19112;51.076;3.706;2023-05-07T09:39:41;16.27;;;4.88;;
32734;SDS011;19112;51.076;3.706;2023-05-07T09:42:12;16.25;;;4.65;;
32734;SDS011;19112;51.076;3.706;2023-05-07T09:44:40;12.25;;;3.88;;
32734;SDS011;19112;51.076;3.706;2023-05-07T09:47:08;14.18;;;4.35;;
32734;SDS011;19112;51.076;3.706;2023-05-07T09:49:35;9.02;;;3.45;;
32734;SDS011;19112;51.076;3.706;2023-05-07T09:52:04;14.07;;;3.78;;
32734;SDS011;19112;51.076;3.706;2023-05-07T09:54:34;10.55;;;3.80;;
32734;SDS011;19112;51.076;3.706;2023-05-07T09:57:03;14.32;;;3.88;;
32734;SDS011;19112;51.076;3.706;2023-05-07T09:59:32;10.77;;;3.65;;
32734;SDS011;19112;51.076;3.706;2023-05-07T10:01:59;10.27;;;3.72;;
32734;SDS011;19112;51.076;3.706;2023-05-07T10:04:26;12.38;;;4.13;;
32734;SDS011;19112;51.076;3.706;2023-05-07T10:06:52;11.85;;;4.10;;
32734;SDS011;19112;51.076;3.706;2023-05-07T10:09:20;11.00;;;3.45;;
32734;SDS011;19112;51.076;3.706;2023-05-07T10:11:50;14.57;;;3.42;;
32734;SDS011;19112;51.076;3.706;2023-05-07T10:14:19;9.57;;;3.03;;
32734;SDS011;19112;51.076;3.706;2023-05-07T10:16:46;14.80;;;4.28;;
32734;SDS011;19112;51.076;3.706;2023-05-07T10:19:13;14.07;;;3.92;;
32734;SDS011;19112;51.076;3.706;2023-05-07T10:21:44;10.98;;;3.55;;
32734;SDS011;19112;51.076;3.706;2023-05-07T10:24:25;12.68;;;4.07;;
32734;SDS011;19112;51.076;3.706;2023-05-07T10:26:55;14.38;;;4.07;;
32734;SDS011;19112;51.076;3.706;2023-05-07T10:32:38;11.60;;;3.28;;
32734;SDS011;19112;51.076;3.706;2023-05-07T10:35:25;8.93;;;3.65;;
32734;SDS011;19112;51.076;3.706;2023-05-07T10:37:56;11.73;;;3.70;;
32734;SDS011;19112;51.076;3.706;2023-05-07T10:40:22;12.27;;;3.90;;
32734;SDS011;19112;51.076;3.706;2023-05-07T10:45:25;11.23;;;3.53;;
32734;SDS011;19112;51.076;3.706;2023-05-07T10:50:41;8.73;;;2.85;;
32734;SDS011;19112;51.076;3.706;2023-05-07T10:55:47;10.10;;;3.30;;
32734;SDS011;19112;51.076;3.706;2023-05-07T11:00:46;10.57;;;3.33;;
32734;SDS011;19112;51.076;3.706;2023-05-07T11:03:14;12.32;;;3.45;;
32734;SDS011;19112;51.076;3.706;2023-05-07T11:05:40;10.40;;;3.10;;
32734;SDS011;19112;51.076;3.706;2023-05-07T11:08:08;9.95;;;3.45;;
32734;SDS011;19112;51.076;3.706;2023-05-07T11:16:16;10.95;;;3.60;;
32734;SDS011;19112;51.076;3.706;2023-05-07T11:24:08;12.75;;;4.03;;
32734;SDS011;19112;51.076;3.706;2023-05-07T11:29:13;8.35;;;3.05;;
32734;SDS011;19112;51.076;3.706;2023-05-07T11:31:50;13.20;;;3.53;;
32734;SDS011;19112;51.076;3.706;2023-05-07T11:34:24;7.25;;;2.85;;
32734;SDS011;19112;51.076;3.706;2023-05-07T11:36:52;6.13;;;2.70;;
32734;SDS011;19112;51.076;3.706;2023-05-07T11:39:25;7.00;;;3.17;;
32734;SDS011;19112;51.076;3.706;2023-05-07T11:41:59;9.23;;;3.17;;
32734;SDS011;19112;51.076;3.706;2023-05-07T11:44:25;8.70;;;3.58;;
32734;SDS011;19112;51.076;3.706;2023-05-07T11:47:05;7.50;;;3.00;;
32734;SDS011;19112;51.076;3.706;2023-05-07T11:49:31;9.90;;;3.30;;
32734;SDS011;19112;51.076;3.706;2023-05-07T11:51:57;9.00;;;2.50;;
32734;SDS011;19112;51.076;3.706;2023-05-07T11:54:22;47.03;;;25.05;;
32734;SDS011;19112;51.076;3.706;2023-05-07T11:56:48;11.15;;;4.35;;
32734;SDS011;19112;51.076;3.706;2023-05-07T11:59:17;5.93;;;2.80;;
32734;SDS011;19112;51.076;3.706;2023-05-07T12:01:45;7.90;;;2.78;;
32734;SDS011;19112;51.076;3.706;2023-05-07T12:04:12;9.07;;;3.22;;
32734;SDS011;19112;51.076;3.706;2023-05-07T12:06:38;8.98;;;3.10;;
32734;SDS011;19112;51.076;3.706;2023-05-07T12:09:04;9.98;;;3.85;;
32734;SDS011;19112;51.076;3.706;2023-05-07T12:11:32;9.68;;;3.22;;
32734;SDS011;19112;51.076;3.706;2023-05-07T12:13:58;10.95;;;2.95;;
32734;SDS011;19112;51.076;3.706;2023-05-07T12:16:24;8.05;;;2.78;;
32734;SDS011;19112;51.076;3.706;2023-05-07T12:18:51;6.65;;;2.80;;
32734;SDS011;19112;51.076;3.706;2023-05-07T12:21:19;13.00;;;2.83;;
32734;SDS011;19112;51.076;3.706;2023-05-07T12:23:46;7.38;;;2.42;;
32734;SDS011;19112;51.076;3.706;2023-05-07T12:26:13;5.88;;;2.30;;
32734;SDS011;19112;51.076;3.706;2023-05-07T12:28:39;6.90;;;2.70;;
32734;SDS011;19112;51.076;3.706;2023-05-07T12:31:05;8.63;;;2.97;;
32734;SDS011;19112;51.076;3.706;2023-05-07T12:33:31;7.80;;;2.70;;
32734;SDS011;19112;51.076;3.706;2023-05-07T12:35:58;7.30;;;2.60;;
32734;SDS011;19112;51.076;3.706;2023-05-07T12:38:32;7.78;;;2.75;;
32734;SDS011;19112;51.076;3.706;2023-05-07T12:41:04;5.85;;;2.47;;
32734;SDS011;19112;51.076;3.706;2023-05-07T12:43:32;5.18;;;2.30;;
32734;SDS011;19112;51.076;3.706;2023-05-07T12:45:59;11.00;;;2.83;;
32734;SDS011;19112;51.076;3.706;2023-05-07T12:48:31;7.60;;;2.47;;
32734;SDS011;19112;51.076;3.706;2023-05-07T12:50:57;8.98;;;2.53;;
32734;SDS011;19112;51.076;3.706;2023-05-07T12:53:27;6.22;;;2.55;;
32734;SDS011;19112;51.076;3.706;2023-05-07T12:55:55;9.27;;;2.67;;
32734;SDS011;19112;51.076;3.706;2023-05-07T12:58:28;5.80;;;2.78;;
32734;SDS011;19112;51.076;3.706;2023-05-07T13:00:56;6.13;;;2.40;;
32734;SDS011;19112;51.076;3.706;2023-05-07T13:03:26;6.50;;;2.42;;
32734;SDS011;19112;51.076;3.706;2023-05-07T13:06:01;6.88;;;2.47;;
32734;SDS011;19112;51.076;3.706;2023-05-07T13:08:34;6.70;;;2.67;;
32734;SDS011;19112;51.076;3.706;2023-05-07T13:11:10;4.32;;;1.92;;
32734;SDS011;19112;51.076;3.706;2023-05-07T13:13:37;9.57;;;2.95;;
32734;SDS011;19112;51.076;3.706;2023-05-07T13:16:05;10.60;;;2.80;;
32734;SDS011;19112;51.076;3.706;2023-05-07T13:18:33;7.00;;;2.63;;
32734;SDS011;19112;51.076;3.706;2023-05-07T13:21:00;5.03;;;2.72;;
32734;SDS011;19112;51.076;3.706;2023-05-07T13:23:26;6.40;;;2.40;;
32734;SDS011;19112;51.076;3.706;2023-05-07T13:25:53;5.13;;;2.30;;
32734;SDS011;19112;51.076;3.706;2023-05-07T13:28:19;6.50;;;2.75;;
32734;SDS011;19112;51.076;3.706;2023-05-07T13:30:46;8.98;;;2.80;;
32734;SDS011;19112;51.076;3.706;2023-05-07T13:33:12;5.22;;;2.38;;
32734;SDS011;19112;51.076;3.706;2023-05-07T13:35:39;6.80;;;2.22;;
32734;SDS011;19112;51.076;3.706;2023-05-07T13:38:05;5.35;;;2.28;;
32734;SDS011;19112;51.076;3.706;2023-05-07T13:40:31;12.80;;;3.50;;
32734;SDS011;19112;51.076;3.706;2023-05-07T13:42:57;4.15;;;1.95;;
32734;SDS011;19112;51.076;3.706;2023-05-07T13:45:25;6.55;;;2.53;;
32734;SDS011;19112;51.076;3.706;2023-05-07T13:47:51;8.27;;;2.67;;
32734;SDS011;19112;51.076;3.706;2023-05-07T13:50:17;6.60;;;2.40;;
32734;SDS011;19112;51.076;3.706;2023-05-07T13:52:43;5.00;;;2.00;;
32734;SDS011;19112;51.076;3.706;2023-05-07T13:55:19;6.18;;;2.78;;
32734;SDS011;19112;51.076;3.706;2023-05-07T13:57:46;6.40;;;2.55;;
32734;SDS011;19112;51.076;3.706;2023-05-07T14:00:13;7.75;;;2.60;;
32734;SDS011;19112;51.076;3.706;2023-05-07T14:02:40;6.65;;;2.75;;
32734;SDS011;19112;51.076;3.706;2023-05-07T14:05:06;7.85;;;2.83;;
32734;SDS011;19112;51.076;3.706;2023-05-07T14:07:34;7.03;;;2.90;;
32734;SDS011;19112;51.076;3.706;2023-05-07T14:10:00;7.80;;;2.95;;
32734;SDS011;19112;51.076;3.706;2023-05-07T14:12:27;9.18;;;2.67;;
32734;SDS011;19112;51.076;3.706;2023-05-07T14:14:53;10.15;;;3.03;;
32734;SDS011;19112;51.076;3.706;2023-05-07T14:17:19;7.60;;;3.10;;
32734;SDS011;19112;51.076;3.706;2023-05-07T14:19:45;10.90;;;3.22;;
32734;SDS011;19112;51.076;3.706;2023-05-07T14:22:12;8.55;;;4.00;;
32734;SDS011;19112;51.076;3.706;2023-05-07T14:24:40;9.90;;;3.35;;
32734;SDS011;19112;51.076;3.706;2023-05-07T14:27:06;10.82;;;4.50;;
32734;SDS011;19112;51.076;3.706;2023-05-07T14:29:32;11.68;;;5.30;;
32734;SDS011;19112;51.076;3.706;2023-05-07T14:32:00;11.30;;;5.55;;
32734;SDS011;19112;51.076;3.706;2023-05-07T14:34:28;15.55;;;6.13;;
32734;SDS011;19112;51.076;3.706;2023-05-07T14:36:54;14.68;;;5.80;;
32734;SDS011;19112;51.076;3.706;2023-05-07T14:39:20;12.35;;;5.88;;
32734;SDS011;19112;51.076;3.706;2023-05-07T14:41:46;13.23;;;5.90;;
32734;SDS011;19112;51.076;3.706;2023-05-07T14:44:12;11.43;;;5.50;;
32734;SDS011;19112;51.076;3.706;2023-05-07T14:46:38;14.30;;;5.60;;
32734;SDS011;19112;51.076;3.706;2023-05-07T14:49:04;10.38;;;5.25;;
32734;SDS011;19112;51.076;3.706;2023-05-07T14:51:30;12.18;;;4.75;;
32734;SDS011;19112;51.076;3.706;2023-05-07T14:53:58;10.63;;;4.35;;
32734;SDS011;19112;51.076;3.706;2023-05-07T14:56:24;7.80;;;3.80;;
32734;SDS011;19112;51.076;3.706;2023-05-07T14:58:50;11.48;;;3.35;;
32734;SDS011;19112;51.076;3.706;2023-05-07T15:01:15;6.40;;;3.30;;
32734;SDS011;19112;51.076;3.706;2023-05-07T15:03:41;6.22;;;3.05;;
32734;SDS011;19112;51.076;3.706;2023-05-07T15:06:07;6.93;;;2.83;;